• Join FlightAware (Why Join?)
  • Login
  • US Flag 
11:31PM EST


 

Airport Tracker/Info


-or-


 

Live Flight TrackerFlight Track Log ✈ N58BC ✈ 16-May-2012 ✈ KAAO - KORD

Flight Track Log - Related Links

Times and Time Zones

All times are in EDT time to prevent confusion due to time zone crossing. See the N58BC flight status page for this flight to view local times or setup timezone preferences in your user account.

Time Position Orientation Groundspeed Altitude Reporting Facility
EDT Latitude Longitude Course Direction KTS MPH feet Rate Location/Type
07:11AM 37.7639 -97.2067 69° East 130 150 2,400  Level Kansas City Center
07:12AM 37.7728 -97.1781 72° East 143 165 3,200 1,380 Climbing Kansas City Center
07:13AM 37.7864 -97.1258 58° Northeast 148 170 4,700 1,440 Climbing Kansas City Center
07:14AM 37.8106 -97.0767 51° Northeast 159 183 6,300 1,320 Climbing Kansas City Center
07:15AM 37.8386 -97.0331 59° Northeast 160 184 7,700 1,320 Climbing Kansas City Center
07:16AM 37.8647 -96.9786 57° Northeast 174 200 9,100 1,440 Climbing Kansas City Center
07:17AM 37.8886 -96.9319 61° Northeast 169 194 10,600 1,440 Climbing Kansas City Center
07:18AM 37.9103 -96.8828 56° Northeast 164 189 12,000 1,440 Climbing Kansas City Center
07:19AM 37.9364 -96.8336 61° Northeast 164 189 13,500 1,500 Climbing Kansas City Center
07:20AM 37.9583 -96.7842 57° Northeast 164 189 15,000 1,380 Climbing Kansas City Center
07:21AM 37.9819 -96.7375 59° Northeast 164 189 16,300 1,320 Climbing Kansas City Center
07:22AM 38.0036 -96.6908 52° Northeast 159 183 17,700 1,200 Climbing Kansas City Center
07:23AM 38.0294 -96.6494 68° East 153 176 18,700 1,020 Climbing Kansas City Center
07:24AM 38.0450 -96.5997 62° Northeast 147 169 19,800 960 Climbing Kansas City Center
07:25AM 38.0644 -96.5528 52° Northeast 142 163 20,900 900 Climbing Kansas City Center
07:26AM 38.1031 -96.4903 61° Northeast 158 182 21,900 900 Climbing Kansas City Center
07:27AM 38.1269 -96.4356 60° Northeast 170 196 22,700 540 Climbing Kansas City Center
07:28AM 38.1531 -96.3781 58° Northeast 175 201 23,000 120 Climbing Kansas City Center
07:29AM 38.1853 -96.3131 58° Northeast 189 217 23,000  Level Kansas City Center
07:30AM 38.2153 -96.2531 58° Northeast 212 244 23,000  Level Kansas City Center
07:31AM 38.2519 -96.1772 60° Northeast 217 250 23,000  Level Kansas City Center
07:32AM 38.2842 -96.1064 58° Northeast 222 255 23,000  Level Kansas City Center
07:33AM 38.3161 -96.0408 59° Northeast 222 255 23,000  Level Kansas City Center
07:34AM 38.3569 -95.9544 60° Northeast 227 261 23,000  Level Kansas City Center
07:35AM 38.3892 -95.8836 58° Northeast 222 255 23,000  Level Kansas City Center
07:36AM 38.4233 -95.8125 62° Northeast 222 255 23,000  Level Kansas City Center
07:37AM 38.4489 -95.7519 59° Northeast 217 250 23,000  Level Kansas City Center
07:38AM 38.4850 -95.6758 59° Northeast 223 257 23,000  Level Kansas City Center
07:39AM 38.5192 -95.6019 58° Northeast 223 257 23,000  Level Kansas City Center
07:40AM 38.5531 -95.5333 61° Northeast 223 257 23,000  Level Kansas City Center
07:41AM 38.5828 -95.4647 60° Northeast 234 269 23,000  Level Kansas City Center
07:42AM 38.6189 -95.3856 58° Northeast 229 264 23,000  Level Kansas City Center
07:43AM 38.6506 -95.3194 58° Northeast 229 264 23,000  Level Kansas City Center
07:44AM 38.6825 -95.2533 59° Northeast 229 264 23,000  Level Kansas City Center
07:45AM 38.7161 -95.1817 61° Northeast 234 269 23,000  Level Kansas City Center
07:46AM 38.7519 -95.0997 60° Northeast 234 269 23,000  Level Kansas City Center
07:47AM 38.7836 -95.0281 59° Northeast 234 269 23,000  Level Kansas City Center
07:48AM 38.8153 -94.9617 60° Northeast 234 269 23,000  Level Kansas City Center
07:49AM 38.8508 -94.8819 60° Northeast 234 269 23,000  Level Kansas City Center
07:50AM 38.8844 -94.8072 60° Northeast 234 269 23,000  Level Kansas City Center
07:51AM 38.9181 -94.7328 59° Northeast 239 275 23,000  Level Kansas City Center
07:52AM 38.9494 -94.6661 60° Northeast 233 268 23,000  Level Kansas City Center
07:53AM 38.9850 -94.5861 60° Northeast 233 268 23,000  Level Kansas City Center
07:54AM 39.0183 -94.5114 60° Northeast 233 268 23,000  Level Kansas City Center
07:55AM 39.0475 -94.4472 59° Northeast 233 268 23,000  Level Kansas City Center
07:56AM 39.0828 -94.3722 60° Northeast 233 268 23,000  Level Kansas City Center
07:57AM 39.1203 -94.2892 62° Northeast 233 268 23,000  Level Kansas City Center
07:58AM 39.1533 -94.2089 60° Northeast 233 268 23,000  Level Kansas City Center
07:59AM 39.1844 -94.1392 60° Northeast 246 283 23,000  Level Kansas City Center
08:00AM 39.2175 -94.0639 57° Northeast 246 283 23,000  Level Kansas City Center
08:01AM 39.2589 -93.9806 63° Northeast 246 283 23,000  Level Kansas City Center
08:02AM 39.2897 -93.9025 59° Northeast 246 283 23,000  Level Kansas City Center
08:03AM 39.3228 -93.8300 62° Northeast 251 289 23,000  Level Kansas City Center
08:04AM 39.3536 -93.7544 58° Northeast 245 282 23,000  Level Kansas City Center
08:05AM 39.3967 -93.6653 60° Northeast 252 290 23,000  Level Kansas City Center
08:06AM 39.4317 -93.5869 63° Northeast 247 284 23,000  Level Kansas City Center
08:07AM 39.4603 -93.5142 59° Northeast 247 284 23,000  Level Kansas City Center
08:08AM 39.4969 -93.4356 62° Northeast 247 284 23,000  Level Kansas City Center
08:09AM 39.5297 -93.3569 61° Northeast 247 284 23,000  Level Kansas City Center
08:10AM 39.5642 -93.2756 59° Northeast 247 284 23,000  Level Kansas City Center
08:11AM 39.5989 -93.1997 61° Northeast 247 284 23,000  Level Kansas City Center
08:12AM 39.6333 -93.1183 58° Northeast 247 284 23,000  Level Kansas City Center
08:13AM 39.6700 -93.0419 63° Northeast 247 284 23,000  Level Kansas City Center
08:14AM 39.7022 -92.9606 63° Northeast 247 284 23,000  Level Kansas City Center
08:15AM 39.7344 -92.8789 59° Northeast 247 284 23,000  Level Kansas City Center
08:16AM 39.7708 -92.7997 60° Northeast 247 284 23,000  Level Kansas City Center
08:17AM 39.8072 -92.7178 64° Northeast 247 284 23,000  Level Kansas City Center
08:18AM 39.8394 -92.6331 59° Northeast 247 284 23,000  Level Kansas City Center
08:19AM 39.8756 -92.5539 62° Northeast 247 284 23,000  Level Kansas City Center
08:20AM 39.9117 -92.4661 61° Northeast 247 284 23,000  Level Kansas City Center
08:21AM 39.9456 -92.3867 60° Northeast 247 284 23,000  Level Kansas City Center
08:22AM 39.9817 -92.3044 62° Northeast 247 284 23,000  Level Kansas City Center
08:23AM 40.0156 -92.2222 62° Northeast 247 284 23,000  Level Kansas City Center
08:24AM 40.0494 -92.1397 62° Northeast 247 284 23,000  Level Kansas City Center
08:25AM 40.0831 -92.0572 63° Northeast 247 284 23,000  Level Kansas City Center
08:26AM 40.1228 -91.9556 61° Northeast 247 284 23,000  Level Kansas City Center
08:27AM 40.1564 -91.8756 58° Northeast 247 284 23,000  Level Kansas City Center
08:28AM 40.1961 -91.7925 60° Northeast 254 292 23,000  Level Kansas City Center
08:29AM 40.2319 -91.7125 59° Northeast 254 292 23,000  Level Kansas City Center
08:30AM 40.2656 -91.6378 60° Northeast 259 298 23,000  Level Kansas City Center
08:31AM 40.3011 -91.5572 60° Northeast 259 298 23,000  Level Kansas City Center
08:32AM 40.3383 -91.4714 59° Northeast 259 298 23,000  Level Kansas City Center
08:33AM 40.3739 -91.3936 59° Northeast 259 298 23,000  Level Kansas City Center
08:34AM 40.4203 -91.2917 61° Northeast 268 308 23,000  Level Chicago Center
08:35AM 40.4508 -91.2189 61° Northeast 263 303 23,000  Level Chicago Center
08:36AM 40.4897 -91.1272 58° Northeast 263 303 23,000  Level Chicago Center
08:37AM 40.5264 -91.0489 60° Northeast 258 297 23,000  Level Chicago Center
08:38AM 40.5631 -90.9653 58° Northeast 258 297 23,000  Level Chicago Center
08:39AM 40.6017 -90.8842 62° Northeast 253 291 23,000  Level Chicago Center
08:40AM 40.6339 -90.8028 59° Northeast 253 291 23,000  Level Chicago Center
08:41AM 40.6706 -90.7214 59° Northeast 253 291 23,000  Level Chicago Center
08:42AM 40.7069 -90.6400 60° Northeast 253 291 23,000  Level Chicago Center
08:43AM 40.7411 -90.5611 60° Northeast 248 285 23,000  Level Chicago Center
08:44AM 40.7775 -90.4794 60° Northeast 248 285 23,000 -60 Level Chicago Center
08:45AM 40.8136 -90.3981 60° Northeast 248 285 22,900 -600 Descending Chicago Center
08:46AM 40.8519 -90.3106 63° Northeast 248 285 21,900 -1,020 Descending Chicago Center
08:47AM 40.8858 -90.2233 59° Northeast 254 292 20,900 -1,320 Descending Chicago Center
08:48AM 40.9219 -90.1442 61° Northeast 254 292 19,300 -1,560 Descending Chicago Center
08:49AM 40.9536 -90.0675 63° Northeast 254 292 17,800 -1,380 Descending Chicago Center
08:50AM 40.9792 -90.0017 56° Northeast 249 287 16,600 -1,560 Descending Chicago Center
08:51AM 41.0233 -89.9142 62° Northeast 244 281 14,700 -1,680 Descending Chicago Center
08:52AM 41.0528 -89.8400 61° Northeast 244 281 13,300 -900 Descending Chicago Center
08:53AM 41.0822 -89.7686 60° Northeast 228 262 13,000 -240 Descending Chicago Center
08:54AM 41.1139 -89.6944 60° Northeast 222 255 12,900 -60 Descending Chicago Center
08:55AM 41.1453 -89.6228 62° Northeast 222 255 12,900  Level Chicago Center
08:56AM 41.1683 -89.5650 61° Northeast 222 255 12,900 -120 Level Chicago Center
08:57AM 41.2019 -89.4853 55° Northeast 222 255 12,700 -420 Descending Chicago Center
08:58AM 41.2372 -89.4189 58° Northeast 222 255 12,100 -600 Descending Chicago Center
08:59AM 41.2708 -89.3472 57° Northeast 222 255 11,600 -480 Descending Chicago Center
09:01AM 41.3042 -89.2781 60° Northeast 222 255 11,100 -540 Descending Chicago Center
09:02AM 41.3394 -89.1978 56° Northeast 222 255 10,500 -600 Descending Chicago Center
09:03AM 41.3706 -89.1369 61° Northeast 205 236 9,900 -600 Descending Chicago Center
09:04AM 41.3997 -89.0675 57° Northeast 205 236 9,400 -540 Descending Chicago Center
09:05AM 41.4308 -89.0036 58° Northeast 205 236 8,900 -540 Descending Chicago Center
09:06AM 41.4617 -88.9369 59° Northeast 205 236 8,400 -540 Descending Chicago Center
09:07AM 41.4906 -88.8731 58° Northeast 205 236 7,900 -240 Descending Chicago Center
09:08AM 41.5217 -88.8064 56° Northeast 205 236 8,000  Climbing Chicago Center
09:09AM 41.5525 -88.7450 59° Northeast 205 236 8,000  Level Chicago Center
09:10AM 41.5814 -88.6808 59° Northeast 205 236 8,000  Level Chicago Center
09:11AM 41.6103 -88.6167 64° Northeast 205 236 8,000  Level Chicago Center
09:12AM 41.6347 -88.5497 86° East 205 236 8,000  Level Chicago Center
09:13AM 41.6383 -88.4719 84° East 200 230 8,000  Level Chicago Center
09:14AM 41.6442 -88.3942 84° East 200 230 8,000  Level Chicago Center
09:15AM 41.6517 -88.2994 67° East 205 236 8,000  Level Chicago Center
09:16AM 41.6778 -88.2183 34° Northeast 196 226 8,000 -540 Level Chicago Center
09:17AM 41.7211 -88.1786 47° Northeast 189 217 7,000 -1,080 Descending Chicago Center
09:19AM 41.8000 -88.0667 26° Northeast 180 207 4,700 -1,080 Descending Chicago TRACON
09:20AM 41.8500 -88.0333 56° Northeast 162 186 3,700 -900 Descending Chicago TRACON
09:21AM 41.8667 -88.0000 48° Northeast 148 170 2,900 -900 Descending Chicago TRACON
09:22AM 41.9000 -87.9500 37° Northeast 153 176 2,000 -780 Descending Chicago TRACON
09:23AM 41.9333 -87.9167 37° Northeast 135 155 1,400 -600 Descending Chicago TRACON